Time;durP1;ratioP1;P1;durP2;ratioP2;P2;SDS_P1;SDS_P2;PMS_P1;PMS_P2;Temp;Humidity;BMP_temperature;BMP_pressure;BME280_temperature;BME280_humidity;BME280_pressure;Samples;Min_cycle;Max_cycle;Signal;HPM_P1;HPM_P2
2023/01/02 00:01:40;;;;;;;10.03;3.30;;;9.20;99.90;;;;;;5075342;28;20049;-81
2023/01/02 00:04:05;;;;;;;10.10;3.20;;;9.30;99.90;;;;;;5075697;28;20298;-81
2023/01/02 00:06:36;;;;;;;9.73;3.63;;;9.30;99.90;;;;;;5076544;28;20320;-82
2023/01/02 00:09:06;;;;;;;9.73;3.57;;;9.30;99.90;;;;;;5041732;28;20104;-81
2023/01/02 00:11:32;;;;;;;8.13;3.40;;;9.30;99.90;;;;;;5058099;28;20802;-82
2023/01/02 00:13:58;;;;;;;8.27;3.63;;;9.30;99.90;;;;;;5076492;28;20286;-81
2023/01/02 00:16:23;;;;;;;9.33;3.83;;;9.30;99.90;;;;;;5042199;28;20374;-82
2023/01/02 00:18:49;;;;;;;10.27;4.13;;;9.30;99.90;;;;;;5041437;28;20056;-82
2023/01/02 00:21:16;;;;;;;12.33;4.60;;;9.30;99.90;;;;;;5075622;28;20404;-81
2023/01/02 00:23:42;;;;;;;12.33;4.40;;;9.30;99.90;;;;;;5076282;28;20032;-82
2023/01/02 00:26:08;;;;;;;9.00;4.23;;;9.30;99.90;;;;;;5076099;28;20279;-81
2023/01/02 00:28:35;;;;;;;11.63;4.83;;;9.40;99.90;;;;;;5058084;28;20627;-82
2023/01/02 00:31:06;;;;;;;13.63;5.03;;;9.40;99.90;;;;;;5075748;28;20366;-81
2023/01/02 00:33:31;;;;;;;10.77;5.20;;;9.40;99.90;;;;;;5057726;28;20358;-81
2023/01/02 00:35:57;;;;;;;11.33;5.17;;;9.40;99.90;;;;;;5057638;28;20301;-81
2023/01/02 00:38:22;;;;;;;12.63;5.90;;;9.40;99.90;;;;;;5040665;28;20441;-81
2023/01/02 00:40:48;;;;;;;14.60;5.87;;;9.50;99.90;;;;;;5058432;28;20048;-81
2023/01/02 00:43:15;;;;;;;13.37;6.50;;;9.50;99.90;;;;;;5058164;28;20063;-81
2023/01/02 00:45:42;;;;;;;10.87;6.47;;;9.50;99.90;;;;;;5075683;28;20059;-81
2023/01/02 00:48:07;;;;;;;15.73;8.00;;;9.60;99.90;;;;;;5057477;28;20366;-81
2023/01/02 00:50:33;;;;;;;12.70;7.27;;;9.60;99.90;;;;;;5040832;28;20365;-81
2023/01/02 00:52:59;;;;;;;15.70;8.93;;;9.60;99.90;;;;;;5074985;28;20044;-82
2023/01/02 00:55:24;;;;;;;16.40;9.00;;;9.60;99.90;;;;;;5024282;28;20472;-82
2023/01/02 00:57:50;;;;;;;13.80;8.57;;;9.70;99.90;;;;;;5075993;28;20158;-82
2023/01/02 01:00:16;;;;;;;14.23;9.13;;;9.70;99.90;;;;;;5057574;28;20080;-82
2023/01/02 01:02:42;;;;;;;15.60;9.83;;;9.80;99.90;;;;;;5056996;28;20059;-83
2023/01/02 01:05:08;;;;;;;13.80;8.20;;;9.80;99.90;;;;;;5057066;28;20435;-82
2023/01/02 01:07:33;;;;;;;14.00;8.90;;;9.80;99.90;;;;;;5057577;28;20544;-82
2023/01/02 01:09:59;;;;;;;14.67;8.80;;;9.90;99.90;;;;;;5074645;28;20051;-82
2023/01/02 01:12:25;;;;;;;11.83;7.90;;;9.90;99.90;;;;;;5040918;28;20334;-82
2023/01/02 01:14:50;;;;;;;13.07;7.60;;;9.90;99.90;;;;;;5074520;28;20083;-82
2023/01/02 01:17:16;;;;;;;13.47;8.20;;;10.00;99.90;;;;;;5075038;28;20488;-82
2023/01/02 01:19:42;;;;;;;13.03;7.53;;;10.00;99.90;;;;;;5074179;28;20048;-82
2023/01/02 01:22:07;;;;;;;15.47;9.10;;;10.10;99.90;;;;;;5074420;28;20067;-82
2023/01/02 01:24:33;;;;;;;13.30;9.43;;;10.10;99.90;;;;;;5057199;28;20457;-81
2023/01/02 01:26:59;;;;;;;15.53;9.03;;;10.10;99.90;;;;;;5056696;28;20056;-81
2023/01/02 01:29:24;;;;;;;15.40;9.27;;;10.10;99.90;;;;;;5057492;28;20105;-81
2023/01/02 01:31:50;;;;;;;14.40;9.10;;;10.10;99.90;;;;;;5074784;28;20051;-81
2023/01/02 01:34:16;;;;;;;16.97;8.93;;;10.10;99.90;;;;;;5039615;28;20127;-81
2023/01/02 01:36:41;;;;;;;14.63;8.60;;;10.10;99.90;;;;;;5074069;28;20137;-81
2023/01/02 01:39:07;;;;;;;14.23;8.70;;;10.10;99.90;;;;;;5056326;28;20049;-81
2023/01/02 01:41:33;;;;;;;15.70;8.57;;;10.10;99.90;;;;;;5039519;28;20511;-81
2023/01/02 01:44:00;;;;;;;14.33;8.57;;;10.20;99.90;;;;;;5056692;28;20047;-81
2023/01/02 01:46:37;;;;;;;16.80;9.53;;;10.20;99.90;;;;;;5074126;28;20392;-81
2023/01/02 01:49:17;;;;;;;15.90;9.80;;;10.20;99.90;;;;;;5056623;28;20282;-82
2023/01/02 01:51:53;;;;;;;15.53;10.33;;;10.20;99.90;;;;;;5056238;28;20831;-84
2023/01/02 01:54:27;;;;;;;16.83;10.13;;;10.20;99.90;;;;;;5074520;28;20266;-81
2023/01/02 01:56:59;;;;;;;17.73;10.63;;;10.20;99.90;;;;;;5074407;28;20318;-81
2023/01/02 01:59:25;;;;;;;17.00;10.57;;;10.30;99.90;;;;;;5074507;28;20271;-81
2023/01/02 02:01:51;;;;;;;17.97;10.90;;;10.20;99.90;;;;;;5055831;28;20295;-82
2023/01/02 02:04:19;;;;;;;17.67;12.40;;;10.20;99.90;;;;;;5055875;28;20309;-81
2023/01/02 02:06:44;;;;;;;19.70;12.97;;;10.30;99.90;;;;;;5073665;28;20299;-82
2023/01/02 02:09:16;;;;;;;19.87;13.57;;;10.30;99.90;;;;;;5073644;28;20389;-82
2023/01/02 02:11:43;;;;;;;22.87;14.37;;;10.30;99.90;;;;;;5056255;28;20059;-82
2023/01/02 02:14:09;;;;;;;23.43;14.57;;;10.20;99.90;;;;;;5039623;28;20290;-82
2023/01/02 02:16:59;;;;;;;21.23;14.43;;;10.30;99.90;;;;;;5056723;28;20611;-82
2023/01/02 02:19:46;;;;;;;24.57;16.33;;;10.30;99.90;;;;;;5056545;28;20052;-82
2023/01/02 02:22:33;;;;;;;25.33;15.93;;;10.30;99.90;;;;;;5073853;28;20279;-82
2023/01/02 02:25:21;;;;;;;27.47;17.17;;;10.30;99.90;;;;;;5055505;28;20330;-83
2023/01/02 02:28:14;;;;;;;31.33;18.60;;;10.30;99.90;;;;;;5073806;28;20286;-84
2023/01/02 02:30:54;;;;;;;28.43;18.13;;;10.30;99.90;;;;;;5056315;28;20291;-83
2023/01/02 02:33:58;;;;;;;30.10;19.03;;;10.30;99.90;;;;;;5073482;28;20379;-83
2023/01/02 02:36:57;;;;;;;30.77;19.40;;;10.40;99.90;;;;;;5055586;28;20377;-82
2023/01/02 02:39:57;;;;;;;29.07;18.60;;;10.30;99.90;;;;;;5073396;28;20814;-82
2023/01/02 02:42:59;;;;;;;30.73;19.27;;;10.40;99.90;;;;;;5050468;28;20298;-82
2023/01/02 02:45:57;;;;;;;29.43;20.23;;;10.40;99.90;;;;;;4969014;28;20287;-82
2023/01/02 02:48:33;;;;;;;35.53;20.27;;;10.40;99.90;;;;;;5056212;28;20290;-82
2023/01/02 02:51:23;;;;;;;35.90;20.13;;;10.50;99.90;;;;;;5055449;28;20345;-82
2023/01/02 02:53:58;;;;;;;32.07;21.43;;;10.50;99.90;;;;;;5073637;28;20279;-82
2023/01/02 02:56:26;;;;;;;;;;;10.50;99.90;;;;;;5073702;28;20282;-82
2023/01/02 02:58:52;;;;;;;31.67;18.93;;;10.50;99.90;;;;;;5055537;28;19921;-82
2023/01/02 03:01:18;;;;;;;31.03;20.53;;;10.50;99.90;;;;;;5055907;28;20283;-82
2023/01/02 03:03:44;;;;;;;35.87;19.80;;;10.50;99.90;;;;;;5072911;28;20298;-82
2023/01/02 03:06:16;;;;;;;33.97;20.27;;;10.50;99.90;;;;;;5038564;28;20765;-82
2023/01/02 03:09:03;;;;;;;35.73;20.57;;;10.50;99.90;;;;;;5055537;28;20045;-82
2023/01/02 03:11:48;;;;;;;34.53;19.97;;;10.50;99.90;;;;;;5039614;28;20340;-82
2023/01/02 03:14:52;;;;;;;33.80;18.90;;;10.60;99.90;;;;;;5055527;28;20299;-82
2023/01/02 03:17:29;;;;;;;35.33;21.23;;;10.50;99.90;;;;;;5073811;28;20650;-82
2023/01/02 03:20:00;;;;;;;32.37;19.70;;;10.60;99.90;;;;;;5055622;28;20722;-82
2023/01/02 03:22:33;;;;;;;37.03;20.97;;;10.60;99.90;;;;;;5072880;28;20340;-82
2023/01/02 03:24:59;;;;;;;31.40;19.77;;;10.60;99.90;;;;;;5038991;28;20370;-82
2023/01/02 03:27:29;;;;;;;31.17;19.63;;;10.60;99.90;;;;;;5072997;28;20365;-82
2023/01/02 03:30:17;;;;;;;29.77;19.40;;;10.60;99.90;;;;;;5056059;28;20044;-83
2023/01/02 03:33:03;;;;;;;35.90;19.87;;;10.60;99.90;;;;;;5055483;28;20294;-82
2023/01/02 03:35:39;;;;;;;30.80;19.90;;;10.60;99.90;;;;;;5057297;28;20294;-81
2023/01/02 03:38:08;;;;;;;36.83;21.33;;;10.60;99.90;;;;;;5077021;28;20267;-82
2023/01/02 03:41:26;;;;;;;30.43;19.10;;;10.60;99.90;;;;;;5076397;28;20794;-82
2023/01/02 03:43:54;;;;;;;31.53;21.03;;;10.60;99.90;;;;;;5036926;28;20303;-81
2023/01/02 03:46:41;;;;;;;32.90;20.57;;;10.70;99.90;;;;;;5042243;28;20319;-81
2023/01/02 03:49:25;;;;;;;35.03;21.87;;;10.70;99.90;;;;;;5059356;28;20298;-82
2023/01/02 03:51:52;;;;;;;39.17;21.70;;;10.70;99.90;;;;;;5076268;28;20279;-82
2023/01/02 03:54:19;;;;;;;39.93;22.37;;;10.70;99.90;;;;;;5058514;28;20079;-82
2023/01/02 03:57:01;;;;;;;43.07;21.47;;;10.70;99.90;;;;;;5058400;28;20279;-81
2023/01/02 03:59:29;;;;;;;43.13;22.10;;;10.70;99.90;;;;;;5058643;28;20298;-81
2023/01/02 04:02:18;;;;;;;38.57;22.70;;;10.70;99.90;;;;;;5058925;28;20341;-81
2023/01/02 04:04:55;;;;;;;37.53;21.03;;;10.70;99.90;;;;;;5058354;28;20333;-81
2023/01/02 04:07:53;;;;;;;38.80;21.07;;;10.70;99.90;;;;;;5075826;28;20290;-81
2023/01/02 04:10:21;;;;;;;39.03;22.43;;;10.70;99.90;;;;;;5057853;28;20326;-81
2023/01/02 04:12:51;;;;;;;34.47;21.57;;;10.70;99.90;;;;;;5058149;28;20283;-81
2023/01/02 04:15:18;;;;;;;41.53;21.97;;;10.70;99.90;;;;;;5058106;28;20283;-80
2023/01/02 04:17:50;;;;;;;36.33;20.90;;;10.70;99.90;;;;;;5076556;28;20286;-80
2023/01/02 04:20:29;;;;;;;40.70;21.93;;;10.70;99.90;;;;;;5058394;28;20358;-81
2023/01/02 04:23:04;;;;;;;37.10;21.63;;;10.70;99.90;;;;;;5058219;28;20310;-81
2023/01/02 04:25:37;;;;;;;;;;;10.70;99.90;;;;;;5059305;28;20368;-82
2023/01/02 04:28:16;;;;;;;37.27;21.27;;;10.70;99.90;;;;;;5075552;28;19922;-82
2023/01/02 04:30:48;;;;;;;40.30;23.27;;;10.70;99.90;;;;;;5058447;28;20624;-82
2023/01/02 04:33:16;;;;;;;38.70;22.80;;;10.70;99.90;;;;;;5042035;28;20329;-81
2023/01/02 04:35:42;;;;;;;44.27;23.20;;;10.80;99.90;;;;;;5058339;28;20619;-80
2023/01/02 04:38:10;;;;;;;41.33;21.93;;;10.80;99.90;;;;;;5058426;28;20291;-81
2023/01/02 04:40:36;;;;;;;45.07;23.03;;;10.80;99.90;;;;;;5057748;28;20482;-80
2023/01/02 04:43:32;;;;;;;39.53;23.67;;;10.70;99.90;;;;;;5075427;28;20382;-81
2023/01/02 04:45:57;;;;;;;42.30;22.10;;;10.70;99.90;;;;;;5036737;28;20348;-80
2023/01/02 04:48:23;;;;;;;42.37;23.77;;;10.70;99.90;;;;;;5057470;28;20044;-80
2023/01/02 04:50:49;;;;;;;38.97;22.37;;;10.70;99.90;;;;;;5075129;28;20087;-80
2023/01/02 04:53:15;;;;;;;38.17;21.23;;;10.80;99.90;;;;;;5075010;28;20044;-80
2023/01/02 04:55:41;;;;;;;43.53;21.30;;;10.80;99.90;;;;;;5057332;28;20052;-81
2023/01/02 04:58:07;;;;;;;38.93;21.63;;;10.80;99.90;;;;;;5057322;28;20052;-81
2023/01/02 05:00:33;;;;;;;36.13;20.27;;;10.80;99.90;;;;;;5040942;28;20440;-81
2023/01/02 05:03:01;;;;;;;34.43;19.03;;;10.80;99.90;;;;;;5074562;28;20544;-80
2023/01/02 05:05:27;;;;;;;33.47;20.73;;;10.80;99.90;;;;;;5074800;28;20290;-80
2023/01/02 05:07:53;;;;;;;32.17;19.00;;;10.80;99.90;;;;;;5074715;28;20283;-81
2023/01/02 05:10:19;;;;;;;28.13;18.80;;;10.80;99.90;;;;;;5057114;28;20048;-81
2023/01/02 05:12:45;;;;;;;30.50;18.57;;;10.80;99.90;;;;;;5057755;28;20041;-81
2023/01/02 05:15:11;;;;;;;29.10;16.23;;;10.80;99.90;;;;;;5074758;28;20049;-82
2023/01/02 05:17:38;;;;;;;30.47;17.00;;;10.80;99.90;;;;;;5056961;28;20476;-82
2023/01/02 05:20:06;;;;;;;25.17;15.17;;;10.80;99.90;;;;;;5057725;28;20051;-81
2023/01/02 05:25:16;;;;;;;19.87;12.73;;;10.80;99.90;;;;;;5074492;28;20354;-82
2023/01/02 05:27:42;;;;;;;20.90;13.03;;;10.90;99.90;;;;;;5074358;28;20473;-82
2023/01/02 05:30:08;;;;;;;24.50;14.50;;;10.80;99.90;;;;;;5056644;28;20072;-82
2023/01/02 05:32:34;;;;;;;21.03;13.33;;;10.90;99.90;;;;;;5074320;28;20048;-82
2023/01/02 05:35:00;;;;;;;20.20;13.20;;;10.90;99.90;;;;;;5056610;28;20302;-82
2023/01/02 05:37:28;;;;;;;19.40;13.80;;;10.90;99.90;;;;;;5074881;28;20348;-83
2023/01/02 05:39:53;;;;;;;21.07;13.17;;;10.90;99.90;;;;;;5056526;28;20052;-83
2023/01/02 05:42:19;;;;;;;22.53;14.03;;;10.90;99.90;;;;;;5040182;28;20616;-83
2023/01/02 05:44:44;;;;;;;21.60;13.83;;;10.90;99.90;;;;;;5074787;28;20097;-83
2023/01/02 05:47:11;;;;;;;24.23;14.47;;;10.90;99.90;;;;;;5074078;28;20044;-82
2023/01/02 05:49:36;;;;;;;26.03;15.30;;;10.90;99.90;;;;;;5056191;28;20110;-82
2023/01/02 05:52:02;;;;;;;25.73;16.37;;;10.90;99.90;;;;;;5056520;28;20283;-81
2023/01/02 05:54:27;;;;;;;26.70;16.40;;;10.90;99.90;;;;;;5040500;28;20446;-81
2023/01/02 05:56:55;;;;;;;28.50;15.60;;;10.90;99.90;;;;;;5073616;28;20044;-82
2023/01/02 05:59:21;;;;;;;24.77;15.40;;;10.90;99.90;;;;;;5072961;28;20105;-82
2023/01/02 06:01:46;;;;;;;24.97;14.97;;;10.90;99.90;;;;;;5056609;28;20287;-81
2023/01/02 06:04:12;;;;;;;27.60;16.60;;;10.90;99.90;;;;;;5055748;28;20486;-82
2023/01/02 06:06:39;;;;;;;30.63;16.47;;;10.90;99.90;;;;;;5073680;28;20054;-81
2023/01/02 06:09:06;;;;;;;26.87;15.20;;;10.90;99.90;;;;;;5056916;28;20056;-79
2023/01/02 06:11:33;;;;;;;23.83;14.47;;;10.90;99.90;;;;;;5073668;28;20318;-80
2023/01/02 06:13:59;;;;;;;22.33;14.63;;;10.80;99.90;;;;;;5040106;28;20283;-79
2023/01/02 06:16:25;;;;;;;22.67;14.87;;;10.80;99.90;;;;;;5073647;28;20301;-80
2023/01/02 06:18:51;;;;;;;22.40;14.67;;;10.80;99.90;;;;;;5056198;28;20290;-80
2023/01/02 06:21:18;;;;;;;23.30;14.97;;;10.80;99.90;;;;;;5073554;28;20150;-80
2023/01/02 06:23:45;;;;;;;20.03;13.73;;;10.80;99.90;;;;;;5074273;28;20294;-83
2023/01/02 06:26:16;;;;;;;23.90;14.97;;;10.70;99.90;;;;;;5073798;28;20735;-81
2023/01/02 06:28:44;;;;;;;20.50;14.13;;;10.70;99.90;;;;;;5073230;28;20313;-82
2023/01/02 06:31:12;;;;;;;23.77;15.27;;;10.70;99.90;;;;;;5074095;28;20275;-78
2023/01/02 06:33:39;;;;;;;26.40;15.03;;;10.70;99.90;;;;;;5073388;28;20267;-78
2023/01/02 06:36:16;;;;;;;30.83;15.17;;;10.60;99.90;;;;;;5073483;28;20340;-78
2023/01/02 06:38:44;;;;;;;31.23;15.07;;;10.60;99.90;;;;;;5074017;28;20282;-81
2023/01/02 06:41:10;;;;;;;41.13;18.13;;;10.50;99.90;;;;;;5073407;28;20283;-79
2023/01/02 06:43:44;;;;;;;37.53;16.13;;;10.50;99.90;;;;;;5055395;28;20431;-85
2023/01/02 06:46:11;;;;;;;33.00;14.27;;;10.40;99.90;;;;;;5056552;28;20305;-79
2023/01/02 06:48:37;;;;;;;32.50;13.23;;;10.30;99.90;;;;;;5056250;28;20445;-81
2023/01/02 06:51:08;;;;;;;29.50;11.63;;;10.20;99.90;;;;;;5074133;28;20279;-84
2023/01/02 06:53:35;;;;;;;19.93;8.73;;;10.10;99.90;;;;;;5073952;28;20266;-83
2023/01/02 06:56:01;;;;;;;12.87;5.50;;;10.10;99.90;;;;;;5073111;28;20275;-84
2023/01/02 06:58:29;;;;;;;11.43;3.40;;;10.00;99.90;;;;;;5073189;28;20369;-83
2023/01/02 07:01:06;;;;;;;8.23;3.50;;;9.90;99.90;;;;;;5056348;28;20040;-84
2023/01/02 07:03:32;;;;;;;9.40;3.10;;;9.90;99.90;;;;;;5073350;28;20299;-84
2023/01/02 07:06:10;;;;;;;8.33;2.87;;;9.80;99.90;;;;;;5073164;28;20063;-85
2023/01/02 07:08:36;;;;;;;10.90;2.53;;;9.70;99.90;;;;;;5073718;28;20051;-84
2023/01/02 07:11:23;;;;;;;5.13;2.03;;;9.60;99.90;;;;;;5077097;28;20279;-84
2023/01/02 07:13:51;;;;;;;5.93;2.30;;;9.60;99.90;;;;;;5076941;28;20310;-83
2023/01/02 07:16:18;;;;;;;7.37;3.17;;;9.50;99.90;;;;;;5077633;28;20310;-83
2023/01/02 07:18:45;;;;;;;5.70;1.70;;;9.50;99.90;;;;;;5077081;28;20835;-83
2023/01/02 07:21:12;;;;;;;5.77;1.50;;;9.50;99.90;;;;;;5059707;28;20759;-83
2023/01/02 07:23:40;;;;;;;10.03;1.83;;;9.50;99.90;;;;;;5076639;28;20341;-83
2023/01/02 07:26:07;;;;;;;6.60;2.03;;;9.40;99.90;;;;;;5076440;28;20865;-83
2023/01/02 07:28:34;;;;;;;4.03;1.40;;;9.40;99.90;;;;;;5076655;28;20318;-84
2023/01/02 07:31:06;;;;;;;6.57;1.63;;;9.40;99.90;;;;;;5076549;28;20282;-83
2023/01/02 07:33:32;;;;;;;7.93;2.40;;;9.30;99.90;;;;;;5076643;28;20283;-83
2023/01/02 07:36:10;;;;;;;6.03;1.60;;;9.40;99.90;;;;;;5076450;28;20283;-83
2023/01/02 07:38:37;;;;;;;10.57;2.17;;;9.40;99.90;;;;;;5076424;28;20810;-83
2023/01/02 07:41:09;;;;;;;6.13;1.60;;;9.30;99.90;;;;;;5076497;28;20278;-83
2023/01/02 07:43:35;;;;;;;7.00;2.30;;;9.40;99.90;;;;;;5076357;28;20299;-83
2023/01/02 07:46:02;;;;;;;6.27;1.77;;;9.30;99.90;;;;;;5058741;28;20347;-83
2023/01/02 07:48:29;;;;;;;5.37;1.63;;;9.30;99.90;;;;;;5076288;28;20396;-83
2023/01/02 07:51:02;;;;;;;5.10;1.80;;;9.30;99.90;;;;;;5077082;28;20367;-83
2023/01/02 07:53:28;;;;;;;6.97;2.10;;;9.30;99.90;;;;;;5076194;28;20404;-83
2023/01/02 07:55:55;;;;;;;9.03;2.20;;;9.30;99.90;;;;;;5058228;28;20382;-83
2023/01/02 07:58:21;;;;;;;5.03;1.70;;;9.30;99.90;;;;;;5058454;28;20124;-83
2023/01/02 08:00:47;;;;;;;7.03;2.00;;;9.20;99.90;;;;;;5076052;28;20302;-84
2023/01/02 08:03:13;;;;;;;7.47;2.10;;;9.30;99.90;;;;;;5057812;28;20794;-83
2023/01/02 08:05:39;;;;;;;5.50;1.93;;;9.30;99.90;;;;;;5076500;28;20044;-83
2023/01/02 08:08:05;;;;;;;8.37;2.10;;;9.30;99.90;;;;;;5075888;28;20051;-84
2023/01/02 08:10:30;;;;;;;5.30;1.83;;;9.20;99.90;;;;;;5076182;28;20045;-83
2023/01/02 08:12:56;;;;;;;3.87;1.60;;;9.20;99.90;;;;;;5075874;28;20777;-84
2023/01/02 08:15:23;;;;;;;6.87;1.87;;;9.20;99.90;;;;;;5058133;28;20049;-83
2023/01/02 08:17:48;;;;;;;5.00;2.00;;;9.20;99.90;;;;;;5076256;28;20054;-83
2023/01/02 08:20:14;;;;;;;6.33;2.20;;;9.20;99.90;;;;;;5076455;28;20369;-83
2023/01/02 08:22:40;;;;;;;6.17;2.10;;;9.20;99.90;;;;;;5074716;28;20059;-83
2023/01/02 08:25:07;;;;;;;7.03;2.10;;;9.20;99.90;;;;;;5075654;28;20045;-84
2023/01/02 08:27:32;;;;;;;7.83;2.03;;;9.20;99.90;;;;;;5057985;28;20057;-83
2023/01/02 08:29:58;;;;;;;4.07;1.73;;;9.20;99.90;;;;;;5075580;28;20293;-84
2023/01/02 08:32:24;;;;;;;7.70;2.33;;;9.10;99.90;;;;;;5075509;28;20131;-84
2023/01/02 08:34:50;;;;;;;4.67;1.93;;;9.10;99.90;;;;;;5058651;28;20398;-84
2023/01/02 08:37:16;;;;;;;7.77;2.67;;;9.10;99.90;;;;;;5075954;28;20096;-84
2023/01/02 08:39:41;;;;;;;5.23;2.07;;;9.20;99.90;;;;;;5075649;28;20055;-84
2023/01/02 08:42:07;;;;;;;7.97;2.60;;;9.10;99.90;;;;;;5075528;28;20374;-84
2023/01/02 08:44:34;;;;;;;10.33;3.60;;;9.10;99.90;;;;;;5040820;28;20044;-83
2023/01/02 08:47:00;;;;;;;9.20;3.10;;;9.10;99.90;;;;;;5075231;28;20760;-84
2023/01/02 08:49:25;;;;;;;10.10;3.80;;;9.10;99.90;;;;;;5057359;28;20318;-83
2023/01/02 08:51:51;;;;;;;9.47;4.03;;;9.10;99.90;;;;;;5075077;28;20040;-83
2023/01/02 08:54:17;;;;;;;11.43;3.97;;;9.10;99.90;;;;;;5075054;28;20040;-83
2023/01/02 08:56:43;;;;;;;14.90;4.77;;;9.10;99.90;;;;;;5057328;28;20529;-83
2023/01/02 08:59:11;;;;;;;11.20;5.13;;;9.00;99.90;;;;;;5074801;28;20123;-83
2023/01/02 09:01:37;;;;;;;16.33;5.00;;;9.10;99.90;;;;;;5074896;28;20088;-83
2023/01/02 09:04:04;;;;;;;13.93;5.30;;;9.10;99.90;;;;;;5075174;28;20303;-83
2023/01/02 09:06:31;;;;;;;13.73;4.73;;;9.00;99.90;;;;;;5075567;28;20301;-83
2023/01/02 09:08:58;;;;;;;13.27;4.93;;;9.10;99.90;;;;;;5056953;28;20290;-83
2023/01/02 09:11:29;;;;;;;13.47;5.10;;;9.10;99.90;;;;;;5074759;28;20282;-83
2023/01/02 09:13:56;;;;;;;16.70;4.80;;;9.10;99.90;;;;;;5075135;28;20581;-83
2023/01/02 09:16:22;;;;;;;11.43;4.43;;;9.00;99.90;;;;;;5041204;28;20291;-83
2023/01/02 09:18:49;;;;;;;15.20;5.37;;;9.10;99.90;;;;;;5074484;28;20287;-83
2023/01/02 09:21:15;;;;;;;13.63;4.80;;;9.10;99.90;;;;;;5074517;28;20288;-83
2023/01/02 09:23:41;;;;;;;10.33;4.60;;;9.10;99.90;;;;;;5074436;28;20306;-83
2023/01/02 09:26:07;;;;;;;14.87;5.43;;;9.10;99.90;;;;;;5074335;28;20279;-83
2023/01/02 09:28:34;;;;;;;13.60;5.03;;;9.20;99.90;;;;;;5074308;28;20433;-84
2023/01/02 09:31:04;;;;;;;11.90;4.83;;;9.20;99.90;;;;;;5040127;28;20322;-84
2023/01/02 09:33:30;;;;;;;14.80;5.40;;;9.10;99.90;;;;;;5074137;28;20278;-84
2023/01/02 09:35:55;;;;;;;12.87;4.80;;;9.20;99.90;;;;;;5057269;28;20362;-83
2023/01/02 09:38:21;;;;;;;9.73;4.00;;;9.10;99.90;;;;;;5074180;28;20519;-83
2023/01/02 09:40:52;;;;;;;10.57;4.63;;;9.10;99.90;;;;;;5056776;28;20048;-83
2023/01/02 09:43:33;;;;;;;13.13;4.93;;;9.10;99.90;;;;;;5074010;28;20321;-82
2023/01/02 09:46:03;;;;;;;11.70;4.07;;;9.10;99.90;;;;;;5057230;28;20383;-82
2023/01/02 09:48:35;;;;;;;11.00;4.40;;;9.10;99.90;;;;;;5057028;28;20619;-82
2023/01/02 09:51:04;;;;;;;10.40;3.60;;;9.10;99.90;;;;;;5055999;28;20715;-82
2023/01/02 09:53:32;;;;;;;7.77;2.97;;;9.20;99.90;;;;;;5055576;28;20813;-83
2023/01/02 09:56:23;;;;;;;6.90;2.90;;;9.20;99.90;;;;;;5073926;28;20298;-83
2023/01/02 09:59:03;;;;;;;7.70;3.10;;;9.10;99.90;;;;;;5068961;28;20287;-82
2023/01/02 10:01:51;;;;;;;7.30;3.13;;;9.10;99.90;;;;;;5074709;28;20279;-83
2023/01/02 10:04:32;;;;;;;6.67;2.87;;;9.20;99.90;;;;;;5055502;28;20310;-83
2023/01/02 10:07:15;;;;;;;6.10;2.67;;;9.20;99.90;;;;;;5073705;28;20322;-83
2023/01/02 10:09:56;;;;;;;8.03;3.07;;;9.20;99.90;;;;;;5056927;28;20293;-83
2023/01/02 10:12:36;;;;;;;7.90;3.20;;;9.20;99.90;;;;;;5073684;28;20340;-83
2023/01/02 10:15:10;;;;;;;6.40;2.90;;;9.20;99.90;;;;;;5073676;28;20290;-83
2023/01/02 10:17:51;;;;;;;8.18;2.80;;;9.20;99.90;;;;;;5073710;28;20279;-83
2023/01/02 10:20:34;;;;;;;7.90;2.57;;;9.20;99.90;;;;;;5056300;28;20168;-83
2023/01/02 10:23:05;;;;;;;9.27;2.83;;;9.20;99.90;;;;;;5056752;28;20461;-83
2023/01/02 10:25:58;;;;;;;7.73;2.43;;;9.10;99.90;;;;;;5056300;28;20358;-83
2023/01/02 10:28:24;;;;;;;6.57;2.67;;;9.10;99.90;;;;;;5074095;28;20271;-83
2023/01/02 10:30:56;;;;;;;8.37;3.53;;;9.10;99.90;;;;;;5073104;28;20841;-83
2023/01/02 10:33:35;;;;;;;9.77;5.00;;;9.10;99.90;;;;;;5074357;28;20040;-83
2023/01/02 10:36:02;;;;;;;11.33;5.50;;;9.10;99.90;;;;;;5074333;28;20283;-83
2023/01/02 10:38:36;;;;;;;10.97;3.47;;;9.10;99.90;;;;;;5055525;28;20297;-83
2023/01/02 10:41:02;;;;;;;7.17;3.63;;;9.10;99.90;;;;;;5055531;28;20290;-83
2023/01/02 10:43:29;;;;;;;8.60;3.37;;;9.10;99.90;;;;;;5074103;28;20744;-83
2023/01/02 10:45:55;;;;;;;7.87;3.63;;;9.10;99.90;;;;;;5077359;28;20282;-83
2023/01/02 10:48:25;;;;;;;10.53;4.27;;;9.10;99.90;;;;;;5078029;28;20278;-83
2023/01/02 10:50:55;;;;;;;9.37;4.00;;;9.10;99.90;;;;;;5077466;28;20271;-84
2023/01/02 10:53:35;;;;;;;9.93;4.03;;;9.10;99.90;;;;;;5077394;28;20755;-84
2023/01/02 10:56:06;;;;;;;12.53;3.87;;;9.00;99.90;;;;;;5077907;28;20700;-83
2023/01/02 10:58:34;;;;;;;8.23;3.37;;;9.00;99.90;;;;;;5077932;28;20354;-83
2023/01/02 11:01:17;;;;;;;11.03;2.97;;;9.00;99.90;;;;;;5043052;28;20295;-83
2023/01/02 11:04:10;;;;;;;7.43;3.00;;;8.90;99.90;;;;;;5059325;28;20299;-83
2023/01/02 11:06:48;;;;;;;9.53;3.13;;;8.90;99.90;;;;;;5059184;28;20287;-83
2023/01/02 11:09:29;;;;;;;14.93;3.30;;;8.90;99.90;;;;;;5077049;28;20283;-83
2023/01/02 11:12:07;;;;;;;11.50;3.83;;;8.90;99.90;;;;;;5059162;28;20291;-83
2023/01/02 11:14:35;;;;;;;11.47;3.30;;;8.90;99.90;;;;;;5077765;28;20686;-83
2023/01/02 11:17:11;;;;;;;11.50;3.70;;;8.90;99.90;;;;;;5076850;28;20285;-83
2023/01/02 11:19:43;;;;;;;11.53;3.00;;;8.90;99.90;;;;;;5076915;28;20283;-83
2023/01/02 11:22:11;;;;;;;10.37;3.00;;;8.90;99.90;;;;;;5059022;28;20298;-83
2023/01/02 11:25:06;;;;;;;7.87;2.70;;;9.00;99.90;;;;;;5077143;28;20295;-84
2023/01/02 11:27:35;;;;;;;11.37;2.43;;;8.90;99.90;;;;;;5076643;28;20279;-84
2023/01/02 11:30:02;;;;;;;13.60;3.10;;;9.00;99.90;;;;;;5076603;28;20285;-84
2023/01/02 11:32:37;;;;;;;11.67;3.57;;;9.00;99.90;;;;;;5042288;28;20298;-84
2023/01/02 11:35:03;;;;;;;10.60;3.20;;;9.10;99.90;;;;;;5076652;28;20815;-84
2023/01/02 11:37:30;;;;;;;14.03;3.63;;;9.10;99.90;;;;;;5076133;28;20044;-83
2023/01/02 11:39:58;;;;;;;11.10;2.17;;;9.10;99.90;;;;;;5076066;28;20775;-84
2023/01/02 11:45:32;;;;;;;11.30;2.23;;;9.20;99.90;;;;;;5004374;28;20868;-84
2023/01/02 11:48:08;;;;;;;14.83;2.80;;;9.20;99.90;;;;;;5042496;28;20766;-84
2023/01/02 11:50:36;;;;;;;12.53;2.70;;;9.20;99.90;;;;;;5076634;28;20743;-84
2023/01/02 11:53:19;;;;;;;16.43;3.07;;;9.20;99.90;;;;;;5076093;28;20277;-84
2023/01/02 11:56:08;;;;;;;14.43;2.80;;;9.20;99.90;;;;;;5075041;28;20290;-84
2023/01/02 11:58:47;;;;;;;11.30;3.00;;;9.20;99.90;;;;;;5076134;28;20273;-84
2023/01/02 12:01:39;;;;;;;8.53;2.70;;;9.20;99.90;;;;;;5076036;28;20365;-84
2023/01/02 12:04:05;;;;;;;15.03;2.10;;;9.20;99.90;;;;;;5057617;28;20364;-84
2023/01/02 12:06:30;;;;;;;11.93;2.33;;;9.20;99.90;;;;;;5058296;28;20286;-85
2023/01/02 12:09:04;;;;;;;11.77;2.60;;;9.20;99.90;;;;;;5059009;28;20548;-84
2023/01/02 12:11:30;;;;;;;11.50;1.80;;;9.20;99.90;;;;;;5058997;28;20095;-85
2023/01/02 12:14:11;;;;;;;15.87;2.20;;;9.30;99.90;;;;;;5076032;28;20662;-84
2023/01/02 12:17:00;;;;;;;13.20;3.10;;;9.30;99.90;;;;;;5075784;28;20048;-85
2023/01/02 12:19:44;;;;;;;16.00;2.60;;;9.30;99.90;;;;;;5075734;28;20388;-85
2023/01/02 12:22:51;;;;;;;19.03;2.50;;;9.30;99.90;;;;;;5075919;28;20604;-85
2023/01/02 12:25:42;;;;;;;13.77;2.30;;;9.30;99.90;;;;;;5011574;28;20659;-85
2023/01/02 12:28:37;;;;;;;23.13;3.07;;;9.30;99.90;;;;;;5076325;28;20374;-85
2023/01/02 12:31:30;;;;;;;9.63;2.70;;;9.30;99.90;;;;;;5075533;28;20362;-85
2023/01/02 12:34:36;;;;;;;12.47;2.50;;;9.30;99.90;;;;;;5075358;28;20093;-84
2023/01/02 12:37:09;;;;;;;14.52;3.85;;;9.30;99.90;;;;;;5041898;28;20297;-85
2023/01/02 12:40:16;;;;;;;16.63;3.07;;;9.40;99.90;;;;;;5075738;28;20094;-85
2023/01/02 12:43:11;;;;;;;18.67;5.20;;;9.30;99.90;;;;;;5075533;28;20623;-85
2023/01/02 12:46:06;;;;;;;17.10;3.53;;;9.30;99.90;;;;;;5061471;28;20382;-85
2023/01/02 12:48:50;;;;;;;12.70;3.80;;;9.30;99.90;;;;;;5075460;28;20287;-85
2023/01/02 12:51:26;;;;;;;24.00;9.17;;;9.30;99.90;;;;;;5075146;28;20293;-85
2023/01/02 12:54:12;;;;;;;24.70;8.40;;;9.30;99.90;;;;;;5041138;28;20289;-85
2023/01/02 12:56:55;;;;;;;22.83;7.00;;;9.30;99.90;;;;;;5057315;28;20337;-85
2023/01/02 12:59:50;;;;;;;12.90;3.63;;;9.40;99.90;;;;;;5057662;28;20287;-85
2023/01/02 13:02:42;;;;;;;14.25;2.97;;;9.30;99.90;;;;;;5074846;28;20278;-85
2023/01/02 13:05:18;;;;;;;19.50;5.03;;;9.30;99.90;;;;;;5074851;28;20131;-85
2023/01/02 13:07:53;;;;;;;17.60;3.83;;;9.40;99.90;;;;;;5074912;28;20619;-85
2023/01/02 13:10:23;;;;;;;21.13;5.13;;;9.30;99.90;;;;;;5074810;28;20353;-85
2023/01/02 13:12:50;;;;;;;15.83;3.83;;;9.30;99.90;;;;;;5074970;28;20750;-85